createdAt,value
2023-02-28T00:00:53.490Z,102072.44
2023-02-28T00:02:56.406Z,102072.66
2023-02-28T00:05:02.351Z,102077.31
2023-02-28T00:07:09.412Z,102078.06
2023-02-28T00:09:13.358Z,102086.06
2023-02-28T00:11:16.747Z,102082.25
2023-02-28T00:13:20.681Z,102084.47
2023-02-28T00:15:24.900Z,102089.53
2023-02-28T00:17:27.029Z,102085.56
2023-02-28T00:19:28.990Z,102083.91
2023-02-28T00:21:31.398Z,102091.03
2023-02-28T00:23:34.711Z,102094.34
2023-02-28T00:25:36.637Z,102099.78
2023-02-28T00:27:46.253Z,102096.63
2023-02-28T00:29:48.344Z,102099.44
2023-02-28T00:31:52.385Z,102100.41
2023-02-28T00:33:54.249Z,102098.09
2023-02-28T00:36:08.873Z,102090.88
2023-02-28T00:38:10.797Z,102096.53
2023-02-28T00:40:13.432Z,102091.97
2023-02-28T00:42:15.403Z,102096.16
2023-02-28T00:44:22.646Z,102095.66
2023-02-28T00:46:26.569Z,102095.22
2023-02-28T00:48:34.533Z,102096.50
2023-02-28T00:50:36.474Z,102096.34
2023-02-28T00:52:38.373Z,102099.72
2023-02-28T00:54:42.253Z,102095.88
2023-02-28T00:56:49.862Z,102097.28
2023-02-28T00:58:52.858Z,102097.16
2023-02-28T01:00:59.337Z,102098.91
2023-02-28T01:03:05.428Z,102097.00
2023-02-28T01:05:07.742Z,102100.09
2023-02-28T01:07:11.618Z,102090.72
2023-02-28T01:09:13.616Z,102101.47
2023-02-28T01:11:17.587Z,102090.44
2023-02-28T01:13:20.037Z,102090.03
2023-02-28T01:15:27.881Z,102095.00
2023-02-28T01:17:29.809Z,102089.50
2023-02-28T01:19:31.839Z,102094.84
2023-02-28T01:21:33.842Z,102090.78
2023-02-28T01:23:35.812Z,102086.75
2023-02-28T01:25:38.249Z,102088.81
2023-02-28T01:27:41.329Z,102086.50
2023-02-28T01:29:43.283Z,102090.34
2023-02-28T01:31:46.228Z,102088.63
2023-02-28T01:33:48.635Z,102085.69
2023-02-28T01:35:51.547Z,102087.63
2023-02-28T01:37:54.021Z,102095.69
2023-02-28T01:39:56.002Z,102097.91
2023-02-28T01:41:58.867Z,102091.22
2023-02-28T01:44:27.953Z,102094.06
2023-02-28T01:46:36.829Z,102095.56
2023-02-28T01:48:52.733Z,102104.53
2023-02-28T01:51:01.117Z,102098.13
2023-02-28T01:53:08.491Z,102101.28
2023-02-28T01:55:12.373Z,102097.19
2023-02-28T01:57:21.978Z,102106.47
2023-02-28T01:59:31.076Z,102095.63
2023-02-28T02:01:33.269Z,102096.97
2023-02-28T02:03:36.847Z,102096.06
2023-02-28T02:05:41.955Z,102091.63
2023-02-28T02:07:46.604Z,102094.28
2023-02-28T02:09:48.768Z,102092.06
2023-02-28T02:11:52.736Z,102096.22
2023-02-28T02:14:19.490Z,102097.09
2023-02-28T02:16:33.519Z,102094.78
2023-02-28T02:18:41.240Z,102095.78
2023-02-28T02:21:01.998Z,102093.81
2023-02-28T02:23:19.167Z,102098.72
2023-02-28T02:25:43.088Z,102098.38
2023-02-28T02:28:07.655Z,102097.22
2023-02-28T02:30:30.243Z,102097.63
2023-02-28T02:33:08.964Z,102092.81
2023-02-28T02:35:41.056Z,102095.41
2023-02-28T02:37:51.042Z,102092.19
2023-02-28T02:40:12.632Z,102098.47
2023-02-28T02:43:02.533Z,102098.53
2023-02-28T02:45:25.126Z,102099.38
2023-02-28T02:47:32.213Z,102096.13
2023-02-28T02:49:38.378Z,102102.94
2023-02-28T02:51:41.961Z,102105.31
2023-02-28T02:54:00.428Z,102103.25
2023-02-28T02:56:07.162Z,102104.00
2023-02-28T02:58:14.556Z,102110.16
2023-02-28T03:00:20.371Z,102107.53
2023-02-28T03:02:23.444Z,102108.16
2023-02-28T03:04:33.541Z,102110.78
2023-02-28T03:06:36.416Z,102112.34
2023-02-28T03:08:39.490Z,102114.84
2023-02-28T03:10:45.526Z,102112.41
2023-02-28T03:13:01.733Z,102104.34
2023-02-28T03:15:19.249Z,102108.84
2023-02-28T03:17:51.005Z,102116.50
2023-02-28T03:19:59.747Z,102110.38
2023-02-28T03:22:38.684Z,102115.41
2023-02-28T03:25:05.497Z,102115.19
2023-02-28T03:27:57.898Z,102113.13
2023-02-28T03:30:07.012Z,102116.63
2023-02-28T03:32:25.699Z,102120.53
2023-02-28T03:34:34.416Z,102118.16
2023-02-28T03:36:46.646Z,102121.19
2023-02-28T03:38:54.252Z,102127.09
2023-02-28T03:41:35.471Z,102125.91
2023-02-28T03:43:42.305Z,102127.34
2023-02-28T03:45:46.876Z,102128.88
2023-02-28T03:48:28.836Z,102121.09
2023-02-28T03:50:44.809Z,102130.94
2023-02-28T03:53:02.221Z,102131.59
2023-02-28T03:55:11.515Z,102129.88
2023-02-28T03:57:24.258Z,102137.94
2023-02-28T03:59:38.415Z,102132.06
2023-02-28T04:01:43.646Z,102130.38
2023-02-28T04:03:45.673Z,102131.38
2023-02-28T04:05:56.933Z,102133.34
2023-02-28T04:08:08.166Z,102127.34
2023-02-28T04:10:10.963Z,102128.22
2023-02-28T04:12:12.874Z,102131.72
2023-02-28T04:14:14.836Z,102128.31
2023-02-28T04:16:34.508Z,102137.28
2023-02-28T04:18:37.502Z,102134.91
2023-02-28T04:20:42.430Z,102134.09
2023-02-28T04:22:47.314Z,102138.28
2023-02-28T04:24:51.166Z,102130.63
2023-02-28T04:26:55.448Z,102134.75
2023-02-28T04:28:57.469Z,102127.66
2023-02-28T04:31:05.213Z,102138.16
2023-02-28T04:33:12.990Z,102137.41
2023-02-28T04:35:14.968Z,102132.25
2023-02-28T04:37:29.013Z,102133.59
2023-02-28T04:39:36.450Z,102135.19
2023-02-28T04:41:39.210Z,102142.56
2023-02-28T04:43:41.259Z,102142.66
2023-02-28T04:45:50.081Z,102136.84
2023-02-28T04:47:51.994Z,102141.78
2023-02-28T04:49:53.910Z,102141.66
2023-02-28T04:52:02.047Z,102134.31
2023-02-28T04:54:05.069Z,102138.69
2023-02-28T04:56:08.339Z,102137.81
2023-02-28T04:58:10.297Z,102135.66
2023-02-28T05:00:14.113Z,102132.25
2023-02-28T05:02:16.974Z,102136.31
2023-02-28T05:04:19.019Z,102139.03
2023-02-28T05:06:22.982Z,102144.31
2023-02-28T05:08:25.034Z,102153.25
2023-02-28T05:10:26.922Z,102150.00
2023-02-28T05:12:34.640Z,102147.47
2023-02-28T05:14:38.083Z,102150.75
2023-02-28T05:16:41.249Z,102150.84
2023-02-28T05:18:50.212Z,102157.41
2023-02-28T05:20:54.157Z,102155.97
2023-02-28T05:23:03.062Z,102160.72
2023-02-28T05:25:08.471Z,102161.78
2023-02-28T05:27:11.506Z,102163.97
2023-02-28T05:29:13.442Z,102170.44
2023-02-28T05:31:15.582Z,102171.09
2023-02-28T05:33:17.499Z,102167.16
2023-02-28T05:35:19.573Z,102179.50
2023-02-28T05:37:22.832Z,102176.91
2023-02-28T05:39:25.795Z,102179.72
2023-02-28T05:41:28.503Z,102178.94
2023-02-28T05:43:32.022Z,102180.81
2023-02-28T05:45:34.960Z,102183.66
2023-02-28T05:47:37.036Z,102183.44
2023-02-28T05:49:38.924Z,102183.53
2023-02-28T05:51:41.186Z,102193.47
2023-02-28T05:53:50.405Z,102189.34
2023-02-28T05:55:52.358Z,102195.28
2023-02-28T05:57:54.309Z,102196.66
2023-02-28T05:59:56.164Z,102197.00
2023-02-28T06:01:58.233Z,102189.66
2023-02-28T06:04:02.055Z,102189.75
2023-02-28T06:06:04.081Z,102191.03
2023-02-28T06:08:08.209Z,102199.25
2023-02-28T06:10:11.695Z,102198.75
2023-02-28T06:12:14.722Z,102204.66
2023-02-28T06:14:18.540Z,102207.66
2023-02-28T06:16:20.590Z,102203.50
2023-02-28T06:18:22.578Z,102202.66
2023-02-28T06:20:27.273Z,102199.44
2023-02-28T06:22:29.248Z,102199.31
2023-02-28T06:24:33.552Z,102198.66
2023-02-28T06:26:36.970Z,102205.00
2023-02-28T06:28:38.902Z,102211.72
2023-02-28T06:30:41.001Z,102204.03
2023-02-28T06:32:50.740Z,102208.97
2023-02-28T06:34:59.317Z,102206.06
2023-02-28T06:37:03.504Z,102193.34
2023-02-28T06:39:05.883Z,102192.56
2023-02-28T06:41:09.135Z,102196.81
2023-02-28T06:43:14.543Z,102190.00
2023-02-28T06:45:16.676Z,102188.75
2023-02-28T06:47:19.660Z,102186.56
2023-02-28T06:49:23.640Z,102178.47
2023-02-28T06:51:25.593Z,102175.94
2023-02-28T06:53:28.532Z,102177.56
2023-02-28T06:55:30.852Z,102173.75
2023-02-28T06:57:35.431Z,102173.41
2023-02-28T06:59:37.762Z,102172.97
2023-02-28T07:01:40.311Z,102170.56
2023-02-28T07:03:42.323Z,102171.53
2023-02-28T07:05:46.550Z,102171.00
2023-02-28T07:07:49.876Z,102173.19
2023-02-28T07:09:53.886Z,102166.25
2023-02-28T07:11:55.871Z,102161.44
2023-02-28T07:13:58.740Z,102165.09
2023-02-28T07:16:03.966Z,102161.75
2023-02-28T07:18:06.055Z,102162.44
2023-02-28T07:20:10.702Z,102166.72
2023-02-28T07:22:15.882Z,102166.38
2023-02-28T07:24:19.180Z,102165.28
2023-02-28T07:26:22.001Z,102166.06
2023-02-28T07:28:25.253Z,102169.03
2023-02-28T07:30:27.288Z,102169.97
2023-02-28T07:32:29.451Z,102172.44
2023-02-28T07:34:32.638Z,102167.16
2023-02-28T07:36:34.552Z,102168.06
2023-02-28T07:38:51.475Z,102165.75
2023-02-28T07:40:53.478Z,102169.19
2023-02-28T07:42:55.423Z,102160.97
2023-02-28T07:44:57.528Z,102159.28
2023-02-28T08:13:47.283Z,102167.66
2023-02-28T08:15:51.671Z,102162.09
2023-02-28T08:17:53.970Z,102163.66
2023-02-28T08:20:02.430Z,102165.50
2023-02-28T08:22:04.657Z,102163.16
2023-02-28T08:24:07.498Z,102160.28
2023-02-28T08:26:09.736Z,102166.78
2023-02-28T08:28:11.978Z,102164.56
2023-02-28T08:30:15.684Z,102155.94
2023-02-28T08:32:28.889Z,102158.88
2023-02-28T08:34:32.149Z,102156.56
2023-02-28T08:36:34.182Z,102153.94
2023-02-28T08:38:37.587Z,102146.75
2023-02-28T08:40:40.287Z,102148.53
2023-02-28T08:42:42.202Z,102150.75
2023-02-28T08:44:44.380Z,102149.09
2023-02-28T08:46:46.445Z,102151.09
2023-02-28T08:48:48.637Z,102152.06
2023-02-28T08:51:07.829Z,102157.41
2023-02-28T08:53:10.448Z,102156.00
2023-02-28T08:55:12.412Z,102153.03
2023-02-28T08:57:15.474Z,102158.63
2023-02-28T08:59:19.600Z,102160.03
2023-02-28T09:01:50.085Z,102149.38
2023-02-28T09:03:52.821Z,102154.66
2023-02-28T09:06:00.100Z,102154.56
2023-02-28T09:08:07.832Z,102158.78
2023-02-28T09:10:10.869Z,102167.19
2023-02-28T09:12:12.769Z,102159.81
2023-02-28T09:14:14.854Z,102154.72
2023-02-28T09:16:18.217Z,102160.06
2023-02-28T09:18:20.653Z,102156.06
2023-02-28T09:20:22.749Z,102155.88
2023-02-28T09:22:24.842Z,102167.28
2023-02-28T09:24:26.803Z,102170.41
2023-02-28T09:26:34.940Z,102176.28
2023-02-28T09:28:44.837Z,102169.78
2023-02-28T09:30:48.660Z,102180.38
2023-02-28T09:32:53.247Z,102176.16
2023-02-28T09:34:55.429Z,102175.34
2023-02-28T09:36:57.496Z,102174.41
2023-02-28T09:38:59.566Z,102172.41
2023-02-28T09:41:12.641Z,102166.50
2023-02-28T09:43:17.024Z,102168.97
2023-02-28T09:45:33.907Z,102171.72
2023-02-28T09:47:40.437Z,102171.31
2023-02-28T09:49:47.727Z,102171.25
2023-02-28T09:52:20.635Z,102172.81
2023-02-28T09:54:25.346Z,102179.06
2023-02-28T09:56:39.725Z,102167.13
2023-02-28T09:58:47.336Z,102173.31
2023-02-28T10:01:16.049Z,102172.59
2023-02-28T10:03:31.630Z,102173.22
2023-02-28T10:05:56.923Z,102166.34
2023-02-28T10:08:26.308Z,102171.69
2023-02-28T10:10:39.760Z,102182.06
2023-02-28T10:12:45.808Z,102174.13
2023-02-28T10:14:53.335Z,102173.00
2023-02-28T10:17:14.476Z,102173.13
2023-02-28T10:19:33.828Z,102173.81
2023-02-28T10:21:41.076Z,102168.59
2023-02-28T10:23:46.201Z,102167.28
2023-02-28T10:26:04.878Z,102168.13
2023-02-28T10:28:15.604Z,102163.94
2023-02-28T10:30:17.828Z,102164.03
2023-02-28T10:32:22.374Z,102162.22
2023-02-28T10:34:25.773Z,102171.31
2023-02-28T10:36:28.111Z,102161.97
2023-02-28T10:38:36.279Z,102171.25
2023-02-28T10:40:38.323Z,102166.03
2023-02-28T10:42:40.211Z,102166.78
2023-02-28T10:44:42.107Z,102162.16
2023-02-28T10:46:45.353Z,102165.50
2023-02-28T10:49:00.544Z,102168.50
2023-02-28T10:51:05.172Z,102167.28
2023-02-28T10:53:27.824Z,102160.47
2023-02-28T10:55:30.764Z,102162.50
2023-02-28T10:57:39.773Z,102156.53
2023-02-28T10:59:41.821Z,102159.63
2023-02-28T11:01:47.483Z,102153.50
2023-02-28T11:03:51.350Z,102153.31
2023-02-28T11:05:54.423Z,102148.06
2023-02-28T11:08:16.323Z,102149.69
2023-02-28T11:10:22.590Z,102143.94
2023-02-28T11:12:27.050Z,102140.75
2023-02-28T11:14:40.867Z,102140.97
2023-02-28T11:16:42.867Z,102132.13
2023-02-28T11:18:53.356Z,102133.50
2023-02-28T11:20:58.970Z,102124.53
2023-02-28T11:23:04.351Z,102126.38
2023-02-28T11:25:17.617Z,102124.44
2023-02-28T11:27:33.027Z,102126.16
2023-02-28T11:29:38.138Z,102125.13
2023-02-28T11:31:40.190Z,102126.16
2023-02-28T11:33:46.369Z,102115.34
2023-02-28T11:35:51.191Z,102114.59
2023-02-28T11:37:53.852Z,102118.59
2023-02-28T11:39:57.363Z,102117.69
2023-02-28T11:42:29.568Z,102105.00
2023-02-28T11:44:56.156Z,102097.03
2023-02-28T11:47:05.464Z,102100.13
2023-02-28T11:49:41.327Z,102103.53
2023-02-28T11:51:59.060Z,102093.84
2023-02-28T11:54:24.083Z,102087.06
2023-02-28T11:56:41.053Z,102088.53
2023-02-28T11:58:54.698Z,102086.59
2023-02-28T12:01:05.600Z,102084.88
2023-02-28T12:03:11.592Z,102077.16
2023-02-28T12:05:27.288Z,102071.38
2023-02-28T12:07:52.204Z,102081.50
2023-02-28T12:10:21.670Z,102079.22
2023-02-28T12:13:31.086Z,102075.53
2023-02-28T12:15:52.452Z,102073.03
2023-02-28T12:18:03.185Z,102063.31
2023-02-28T12:20:25.029Z,102069.50
2023-02-28T12:22:52.901Z,102068.63
2023-02-28T12:25:19.821Z,102071.03
2023-02-28T12:27:27.188Z,102072.91
2023-02-28T12:29:37.326Z,102057.69
2023-02-28T12:31:57.870Z,102056.44
2023-02-28T12:34:11.077Z,102046.81
2023-02-28T12:36:30.622Z,102052.09
2023-02-28T12:39:08.576Z,102055.19
2023-02-28T12:41:17.960Z,102051.72
2023-02-28T12:43:34.011Z,102052.72
2023-02-28T12:45:49.765Z,102035.59
2023-02-28T12:48:21.572Z,102035.59
2023-02-28T12:50:26.662Z,102034.72
2023-02-28T12:52:39.067Z,102036.16
2023-02-28T12:54:59.671Z,102025.81
2023-02-28T12:57:41.165Z,102032.06
2023-02-28T12:59:53.448Z,102034.22
2023-02-28T13:02:12.464Z,102030.75
2023-02-28T13:04:52.983Z,102032.97
2023-02-28T13:07:25.797Z,102035.22
2023-02-28T13:09:30.762Z,102032.00
2023-02-28T13:11:40.063Z,102022.66
2023-02-28T13:13:46.704Z,102029.56
2023-02-28T13:16:10.986Z,102028.72
2023-02-28T13:18:38.397Z,102027.94
2023-02-28T13:20:49.446Z,102019.25
2023-02-28T13:22:59.060Z,102022.97
2023-02-28T13:25:48.339Z,102018.22
2023-02-28T13:27:58.018Z,102022.22
2023-02-28T13:30:00.760Z,102016.34
2023-02-28T13:32:11.938Z,102019.09
2023-02-28T13:34:17.124Z,102017.53
2023-02-28T13:36:23.031Z,102014.84
2023-02-28T13:38:34.245Z,102011.41
2023-02-28T13:40:39.047Z,102002.97
2023-02-28T13:42:45.598Z,102003.09
2023-02-28T13:45:25.886Z,101999.91
2023-02-28T13:47:31.810Z,101996.00
2023-02-28T13:49:35.614Z,102000.00
2023-02-28T13:51:52.473Z,101992.44
2023-02-28T13:54:15.093Z,101991.69
2023-02-28T13:56:32.856Z,101993.97
2023-02-28T13:58:53.411Z,101982.13
2023-02-28T14:01:23.481Z,101981.03
2023-02-28T14:03:36.217Z,101982.06
2023-02-28T14:05:39.972Z,101981.13
2023-02-28T14:07:57.149Z,101978.06
2023-02-28T14:10:09.745Z,101973.78
2023-02-28T14:12:49.013Z,101975.91
2023-02-28T14:14:53.073Z,101969.53
2023-02-28T14:16:56.345Z,101971.78
2023-02-28T14:19:10.930Z,101965.72
2023-02-28T14:21:16.171Z,101971.81
2023-02-28T14:23:26.106Z,101961.41
2023-02-28T14:25:57.249Z,101967.66
2023-02-28T14:28:27.554Z,101963.16
2023-02-28T14:30:59.565Z,101953.47
2023-02-28T14:33:30.309Z,101957.63
2023-02-28T14:36:01.323Z,101954.47
2023-02-28T14:38:08.381Z,101962.84
2023-02-28T14:40:21.632Z,101952.53
2023-02-28T14:42:31.300Z,101952.75
2023-02-28T14:44:37.733Z,101945.09
2023-02-28T14:46:42.889Z,101943.75
2023-02-28T14:48:48.297Z,101941.81
2023-02-28T14:50:54.685Z,101941.97
2023-02-28T14:52:58.889Z,101940.09
2023-02-28T14:55:08.412Z,101945.75
2023-02-28T14:57:26.350Z,101941.38
2023-02-28T14:59:35.705Z,101939.09
2023-02-28T15:01:37.920Z,101938.59
2023-02-28T15:03:42.045Z,101932.22
2023-02-28T15:05:53.772Z,101930.66
2023-02-28T15:08:11.888Z,101931.66
2023-02-28T15:10:24.184Z,101934.25
2023-02-28T15:14:29.431Z,101934.25
2023-02-28T15:16:43.139Z,101932.19
2023-02-28T15:18:48.614Z,101935.53
2023-02-28T15:20:52.223Z,101932.56
2023-02-28T15:22:58.769Z,101934.03
2023-02-28T15:25:01.220Z,101937.16
2023-02-28T15:27:08.779Z,101934.59
2023-02-28T15:29:20.428Z,101940.25
2023-02-28T15:31:28.483Z,101937.03
2023-02-28T15:33:34.900Z,101941.41
2023-02-28T15:35:37.089Z,101948.81
2023-02-28T15:37:47.413Z,101946.28
2023-02-28T15:39:50.750Z,101945.13
2023-02-28T15:41:52.838Z,101945.56
2023-02-28T15:44:35.388Z,101942.59
2023-02-28T15:46:38.677Z,101939.69
2023-02-28T15:48:58.181Z,101947.31
2023-02-28T15:51:44.571Z,101947.84
2023-02-28T15:53:54.547Z,101948.53
2023-02-28T15:56:29.615Z,101946.25
2023-02-28T15:58:36.419Z,101938.06
2023-02-28T16:00:38.408Z,101941.06
2023-02-28T16:02:40.901Z,101942.66
2023-02-28T16:05:08.001Z,101937.19
2023-02-28T16:07:14.128Z,101935.25
2023-02-28T16:09:18.082Z,101945.41
2023-02-28T16:11:23.504Z,101938.69
2023-02-28T16:13:26.696Z,101947.25
2023-02-28T16:15:32.497Z,101947.63
2023-02-28T16:17:39.325Z,101944.41
2023-02-28T16:19:41.388Z,101950.84
2023-02-28T16:21:46.997Z,101958.56
2023-02-28T16:23:51.069Z,101958.69
2023-02-28T16:25:53.371Z,101958.78
2023-02-28T16:27:58.658Z,101955.53
2023-02-28T16:30:08.783Z,101961.59
2023-02-28T16:32:16.559Z,101958.44
2023-02-28T16:34:21.109Z,101952.78
2023-02-28T16:36:28.928Z,101950.09
2023-02-28T16:38:31.005Z,101957.88
2023-02-28T16:40:37.840Z,101953.91
2023-02-28T16:42:40.531Z,101965.38
2023-02-28T16:44:42.917Z,101961.84
2023-02-28T16:46:45.218Z,101960.72
2023-02-28T16:48:52.792Z,101959.41
2023-02-28T16:50:55.281Z,101952.06
2023-02-28T16:52:58.622Z,101950.66
2023-02-28T16:55:01.324Z,101951.34
2023-02-28T16:57:04.047Z,101961.16
2023-02-28T16:59:12.480Z,101958.88
2023-02-28T17:01:15.712Z,101961.94
2023-02-28T17:03:34.148Z,101965.38
2023-02-28T17:05:41.168Z,101962.63
2023-02-28T17:07:47.809Z,101965.91
2023-02-28T17:09:49.957Z,101971.84
2023-02-28T17:11:52.458Z,101967.84
2023-02-28T17:14:22.359Z,101970.91
2023-02-28T17:16:30.773Z,101971.13
2023-02-28T17:18:35.070Z,101975.09
2023-02-28T17:20:38.312Z,101975.63
2023-02-28T17:22:41.657Z,101977.72
2023-02-28T17:24:46.914Z,101987.88
2023-02-28T17:26:50.908Z,101994.47
2023-02-28T17:28:57.175Z,101991.13
2023-02-28T17:31:00.570Z,101987.06
2023-02-28T17:33:07.423Z,101995.44
2023-02-28T17:35:12.572Z,101994.66
2023-02-28T17:37:16.958Z,101991.34
2023-02-28T17:39:25.555Z,101991.84
2023-02-28T17:41:28.150Z,101991.50
2023-02-28T17:43:31.021Z,101982.41
2023-02-28T17:45:37.089Z,101980.34
2023-02-28T17:47:40.420Z,101982.78
2023-02-28T17:49:43.398Z,101982.44
2023-02-28T17:51:46.462Z,101992.97
2023-02-28T17:53:49.265Z,101986.34
2023-02-28T17:55:53.480Z,101985.22
2023-02-28T17:57:57.563Z,101985.06
2023-02-28T18:00:02.249Z,101983.94
2023-02-28T18:02:08.506Z,101990.28
2023-02-28T18:04:10.647Z,101979.75
2023-02-28T18:06:24.463Z,101985.06
2023-02-28T18:08:27.315Z,101979.66
2023-02-28T18:10:30.126Z,101977.69
2023-02-28T18:12:32.576Z,101977.38
2023-02-28T18:14:35.120Z,101974.91
2023-02-28T18:16:37.606Z,101975.06
2023-02-28T18:18:40.466Z,101970.94
2023-02-28T18:20:44.042Z,101959.63
2023-02-28T18:22:51.518Z,101956.06
2023-02-28T18:24:54.066Z,101950.31
2023-02-28T18:27:00.187Z,101947.78
2023-02-28T18:29:04.553Z,101946.81
2023-02-28T18:31:09.159Z,101954.34
2023-02-28T18:33:12.623Z,101948.66
2023-02-28T18:35:18.545Z,101944.69
2023-02-28T18:37:21.456Z,101943.44
2023-02-28T18:39:25.245Z,101936.66
2023-02-28T18:41:29.584Z,101939.72
2023-02-28T18:43:35.185Z,101928.84
2023-02-28T18:45:40.666Z,101925.53
2023-02-28T18:47:44.554Z,101930.72
2023-02-28T18:49:54.313Z,101933.31
2023-02-28T18:51:59.209Z,101931.03
2023-02-28T18:54:06.507Z,101921.47
2023-02-28T18:56:15.213Z,101925.22
2023-02-28T18:58:24.504Z,101925.97
2023-02-28T19:00:34.748Z,101915.50
2023-02-28T19:02:38.348Z,101920.09
2023-02-28T19:04:42.491Z,101924.28
2023-02-28T19:06:46.188Z,101923.44
2023-02-28T19:08:56.122Z,101922.31
2023-02-28T19:10:59.298Z,101925.16
2023-02-28T19:13:05.412Z,101930.03
2023-02-28T19:15:11.920Z,101924.13
2023-02-28T19:17:17.399Z,101939.84
2023-02-28T19:19:20.268Z,101947.34
2023-02-28T19:21:29.687Z,101943.41
2023-02-28T19:23:34.664Z,101946.03
2023-02-28T19:25:44.029Z,101941.56
2023-02-28T19:27:47.857Z,101942.81
2023-02-28T19:29:54.672Z,101954.09
2023-02-28T19:31:58.068Z,101949.53
2023-02-28T19:34:04.933Z,101948.69
2023-02-28T19:36:23.303Z,101955.19
2023-02-28T19:38:26.225Z,101958.94
2023-02-28T19:40:36.265Z,101968.03
2023-02-28T19:42:40.812Z,101971.97
2023-02-28T19:44:46.254Z,101966.63
2023-02-28T19:46:53.974Z,101962.72
2023-02-28T19:48:58.500Z,101966.63
2023-02-28T19:51:06.434Z,101970.66
2023-02-28T19:53:09.207Z,101969.22
2023-02-28T19:55:11.981Z,101969.31
2023-02-28T19:57:14.692Z,101967.75
2023-02-28T19:59:21.829Z,101973.16
2023-02-28T20:01:30.217Z,101970.91
2023-02-28T20:03:35.099Z,101976.31
2023-02-28T20:05:38.740Z,101981.72
2023-02-28T20:07:41.903Z,101984.16
2023-02-28T20:09:46.352Z,101979.63
2023-02-28T20:11:49.823Z,101981.69
2023-02-28T20:13:59.943Z,101979.72
2023-02-28T20:16:09.885Z,101979.38
2023-02-28T20:18:13.843Z,101986.41
2023-02-28T20:20:18.245Z,101981.34
2023-02-28T20:22:21.240Z,101984.06
2023-02-28T20:24:26.626Z,101976.63
2023-02-28T20:26:32.536Z,101989.63
2023-02-28T20:28:42.592Z,101984.56
2023-02-28T20:30:53.533Z,101975.44
2023-02-28T20:32:56.709Z,101978.38
2023-02-28T20:35:01.429Z,101976.81
2023-02-28T20:37:08.251Z,101982.66
2023-02-28T20:39:14.278Z,101983.94
2023-02-28T20:41:21.813Z,101971.66
2023-02-28T20:43:24.518Z,101966.69
2023-02-28T20:45:28.566Z,101956.81
2023-02-28T20:47:31.569Z,101955.56
2023-02-28T20:49:34.513Z,101945.75
2023-02-28T20:51:40.284Z,101948.09
2023-02-28T20:53:43.721Z,101945.41
2023-02-28T20:56:02.173Z,101950.06
2023-02-28T20:58:07.741Z,101951.63
2023-02-28T21:00:17.068Z,101961.06
2023-02-28T21:02:24.693Z,101962.00
2023-02-28T21:04:28.744Z,101961.66
2023-02-28T21:06:33.886Z,101964.47
2023-02-28T21:08:38.873Z,101964.59
2023-02-28T21:10:44.541Z,101969.31
2023-02-28T21:12:50.628Z,101971.22
2023-02-28T21:14:52.735Z,101971.78
2023-02-28T21:16:58.546Z,101964.06
2023-02-28T21:19:11.813Z,101971.09
2023-02-28T21:21:19.094Z,101964.53
2023-02-28T21:23:21.419Z,101961.88
2023-02-28T21:25:25.130Z,101958.03
2023-02-28T21:27:28.117Z,101960.03
2023-02-28T21:29:30.407Z,101957.53
2023-02-28T21:31:35.085Z,101957.66
2023-02-28T21:33:37.360Z,101962.31
2023-02-28T21:35:39.419Z,101954.16
2023-02-28T21:37:44.304Z,101959.19
2023-02-28T21:39:46.670Z,101953.50
2023-02-28T21:41:48.621Z,101944.66
2023-02-28T21:43:51.532Z,101939.00
2023-02-28T21:45:53.598Z,101943.16
2023-02-28T21:47:55.581Z,101942.31
2023-02-28T21:49:57.736Z,101948.69
2023-02-28T21:52:01.905Z,101946.75
2023-02-28T21:54:04.205Z,101948.50
2023-02-28T21:56:15.248Z,101958.75
2023-02-28T21:58:19.296Z,101953.81
2023-02-28T22:00:21.924Z,101951.38
2023-02-28T22:02:23.991Z,101958.88
2023-02-28T22:04:37.463Z,101958.78
2023-02-28T22:06:44.185Z,101967.38
2023-02-28T22:08:50.355Z,101956.94
2023-02-28T22:10:52.264Z,101954.69
2023-02-28T22:12:54.560Z,101951.53
2023-02-28T22:14:57.305Z,101953.31
2023-02-28T22:16:59.765Z,101958.31
2023-02-28T22:19:07.640Z,101949.69
2023-02-28T22:21:11.776Z,101959.19
2023-02-28T22:23:14.766Z,101946.13
2023-02-28T22:25:16.863Z,101938.91
2023-02-28T22:27:18.822Z,101943.63
2023-02-28T22:29:21.282Z,101943.69
2023-02-28T22:31:29.786Z,101933.59
2023-02-28T22:33:31.779Z,101943.00
2023-02-28T22:35:33.715Z,101942.56
2023-02-28T22:37:36.336Z,101938.81
2023-02-28T22:39:38.340Z,101936.38
2023-02-28T22:41:40.753Z,101935.44
2023-02-28T22:43:49.623Z,101935.88
2023-02-28T22:45:52.624Z,101933.94
2023-02-28T22:47:54.655Z,101923.31
2023-02-28T22:49:56.634Z,101928.88
2023-02-28T22:51:58.727Z,101933.16
2023-02-28T22:54:01.129Z,101932.09
2023-02-28T22:56:03.199Z,101931.50
2023-02-28T22:58:05.322Z,101940.47
2023-02-28T23:00:10.128Z,101934.66
2023-02-28T23:02:12.107Z,101939.94
2023-02-28T23:04:14.159Z,101935.78
2023-02-28T23:06:23.139Z,101935.88
2023-02-28T23:08:25.131Z,101942.16
2023-02-28T23:10:27.054Z,101935.78
2023-02-28T23:12:29.865Z,101937.69
2023-02-28T23:14:31.922Z,101931.88
2023-02-28T23:16:40.223Z,101942.31
2023-02-28T23:18:43.264Z,101944.13
2023-02-28T23:20:45.230Z,101954.69
2023-02-28T23:22:50.806Z,101959.91
2023-02-28T23:24:53.477Z,101954.78
2023-02-28T23:26:58.267Z,101956.78
2023-02-28T23:29:01.404Z,101951.03
2023-02-28T23:31:04.790Z,101955.47
2023-02-28T23:33:07.166Z,101949.66
2023-02-28T23:35:10.917Z,101955.13
2023-02-28T23:37:12.883Z,101947.53
2023-02-28T23:39:17.560Z,101936.38
2023-02-28T23:41:21.003Z,101938.13
2023-02-28T23:43:24.388Z,101936.38
2023-02-28T23:45:26.542Z,101933.75
2023-02-28T23:47:28.743Z,101940.38
2023-02-28T23:49:30.731Z,101945.28
2023-02-28T23:51:32.652Z,101950.44
2023-02-28T23:53:35.868Z,101951.38
2023-02-28T23:55:37.794Z,101950.50
2023-02-28T23:57:39.816Z,101957.47
2023-02-28T23:59:41.713Z,101959.75
